Time,TemperatureF,DewpointF,PressureIn,WindDirection,WindDirectionDegrees,WindSpeedMPH,WindSpeedGustMPH,Humidity,HourlyPrecipIn,Conditions,Clouds,dailyrainin,SolarRadiationWatts/m^2,SoftwareType,DateUTC
2013-07-20 00:01:00,64.8,44.7,30.66,SE,131,0.0,0.0,48,0.00,,,0.00,0.00,VWS V14.00,2013-07-20 06:01:00,
2013-07-20 00:06:00,64.3,41.3,30.67,SE,131,0.0,0.0,43,0.00,,,0.00,0.00,VWS V14.00,2013-07-20 06:06:00,
2013-07-20 00:11:00,64.0,42.3,30.65,SE,131,0.0,1.0,45,0.00,,,0.00,0.00,VWS V14.00,2013-07-20 06:11:00,
2013-07-20 00:16:00,63.8,43.8,30.65,SE,131,0.0,2.0,48,0.00,,,0.00,0.00,VWS V14.00,2013-07-20 06:16:00,
2013-07-20 00:21:00,63.5,43.5,30.65,SE,130,0.0,4.0,48,0.00,,,0.00,0.00,VWS V14.00,2013-07-20 06:21:00,
2013-07-20 00:26:00,62.9,42.9,30.65,SE,131,0.0,1.0,48,0.00,,,0.00,0.00,VWS V14.00,2013-07-20 06:26:00,
2013-07-20 00:31:00,62.4,42.5,30.65,SE,130,0.0,1.0,48,0.00,,,0.00,0.00,VWS V14.00,2013-07-20 06:31:00,
2013-07-20 00:36:00,62.0,41.6,30.66,SE,131,0.0,1.0,47,0.00,,,0.00,0.00,VWS V14.00,2013-07-20 06:36:00,
2013-07-20 00:41:00,61.4,43.1,30.67,SE,128,0.0,0.0,51,0.00,,,0.00,0.00,VWS V14.00,2013-07-20 06:41:00,
2013-07-20 00:46:00,60.8,40.5,30.67,SE,128,0.0,1.0,47,0.00,,,0.00,0.00,VWS V14.00,2013-07-20 06:46:00,
2013-07-20 00:51:00,60.5,38.5,30.67,SE,128,0.0,1.0,44,0.00,,,0.00,0.00,VWS V14.00,2013-07-20 06:51:00,
2013-07-20 00:56:00,60.5,39.6,30.67,SE,128,0.0,0.0,46,0.00,,,0.00,0.00,VWS V14.00,2013-07-20 06:56:00,
2013-07-20 01:01:00,60.4,40.1,30.68,SE,128,0.0,1.0,47,0.00,,,0.00,0.00,VWS V14.00,2013-07-20 07:01:00,
2013-07-20 01:06:00,60.4,41.2,30.68,SE,128,0.0,3.0,49,0.00,,,0.00,0.00,VWS V14.00,2013-07-20 07:06:00,
2013-07-20 01:11:00,60.6,38.0,30.67,SE,133,5.0,6.0,43,0.00,,,0.00,0.00,VWS V14.00,2013-07-20 07:11:00,
2013-07-20 01:16:00,61.4,38.1,30.67,SE,132,2.0,6.0,42,0.00,,,0.00,0.00,VWS V14.00,2013-07-20 07:16:00,
2013-07-20 01:21:00,62.0,41.6,30.66,SE,132,0.0,6.0,47,0.00,,,0.00,0.00,VWS V14.00,2013-07-20 07:21:00,
2013-07-20 01:26:00,61.6,40.6,30.66,SE,132,0.0,0.0,46,0.00,,,0.00,0.00,VWS V14.00,2013-07-20 07:26:00,
2013-07-20 01:31:00,61.4,41.0,30.66,SE,132,0.0,0.0,47,0.00,,,0.00,0.00,VWS V14.00,2013-07-20 07:31:00,
2013-07-20 01:37:00,61.1,39.0,30.66,SE,132,0.0,0.0,44,0.00,,,0.00,0.00,VWS V14.00,2013-07-20 07:37:00,
2013-07-20 01:41:00,60.9,39.4,30.66,SE,132,0.0,0.0,45,0.00,,,0.00,0.00,VWS V14.00,2013-07-20 07:41:00,
2013-07-20 01:46:00,60.8,43.1,30.66,SE,132,0.0,0.0,52,0.00,,,0.00,0.00,VWS V14.00,2013-07-20 07:46:00,
2013-07-20 01:52:00,60.5,43.8,30.66,SE,132,0.0,2.0,54,0.00,,,0.00,0.00,VWS V14.00,2013-07-20 07:52:00,
2013-07-20 01:56:00,59.9,43.7,30.67,SE,132,0.0,3.0,55,0.00,,,0.00,0.00,VWS V14.00,2013-07-20 07:56:00,
2013-07-20 02:02:00,59.0,41.4,30.67,SE,132,0.0,3.0,52,0.00,,,0.00,0.00,VWS V14.00,2013-07-20 08:02:00,
2013-07-20 02:07:00,58.6,42.5,30.68,SE,132,0.0,3.0,55,0.00,,,0.00,0.00,VWS V14.00,2013-07-20 08:07:00,
2013-07-20 02:12:00,58.3,40.3,30.67,SE,132,0.0,0.0,51,0.00,,,0.00,0.00,VWS V14.00,2013-07-20 08:12:00,
2013-07-20 02:17:00,58.0,39.0,30.67,SE,132,0.0,0.0,49,0.00,,,0.00,0.00,VWS V14.00,2013-07-20 08:17:00,
2013-07-20 02:22:00,57.8,41.3,30.67,SE,132,0.0,0.0,54,0.00,,,0.00,0.00,VWS V14.00,2013-07-20 08:22:00,
2013-07-20 02:27:00,57.7,41.7,30.67,SE,132,0.0,0.0,55,0.00,,,0.00,0.00,VWS V14.00,2013-07-20 08:27:00,
2013-07-20 02:32:00,57.6,39.1,30.67,SE,132,0.0,0.0,50,0.00,,,0.00,0.00,VWS V14.00,2013-07-20 08:32:00,
2013-07-20 02:37:00,57.6,42.0,30.67,SE,132,0.0,0.0,56,0.00,,,0.00,0.00,VWS V14.00,2013-07-20 08:37:00,
2013-07-20 02:42:00,57.5,40.0,30.67,SE,132,0.0,0.0,52,0.00,,,0.00,0.00,VWS V14.00,2013-07-20 08:42:00,
2013-07-20 02:47:00,57.5,40.0,30.67,SE,132,0.0,0.0,52,0.00,,,0.00,0.00,VWS V14.00,2013-07-20 08:47:00,
2013-07-20 02:51:00,57.5,41.9,30.67,SE,132,0.0,0.0,56,0.00,,,0.00,0.00,VWS V14.00,2013-07-20 08:51:00,
2013-07-20 02:56:00,57.5,40.5,30.67,SE,132,0.0,0.0,53,0.00,,,0.00,0.00,VWS V14.00,2013-07-20 08:56:00,
2013-07-20 03:01:00,57.4,41.8,30.67,SE,132,0.0,0.0,56,0.00,,,0.00,0.00,VWS V14.00,2013-07-20 09:01:00,
2013-07-20 03:06:00,57.2,40.2,30.67,SE,132,0.0,0.0,53,0.00,,,0.00,0.00,VWS V14.00,2013-07-20 09:06:00,
2013-07-20 03:11:00,57.1,41.1,30.66,SE,132,0.0,0.0,55,0.00,,,0.00,0.00,VWS V14.00,2013-07-20 09:11:00,
2013-07-20 03:16:00,57.0,43.3,30.66,SE,132,0.0,0.0,60,0.00,,,0.00,0.00,VWS V14.00,2013-07-20 09:16:00,
2013-07-20 03:21:00,56.8,39.9,30.66,SE,132,0.0,0.0,53,0.00,,,0.00,0.00,VWS V14.00,2013-07-20 09:21:00,
2013-07-20 03:26:00,56.8,39.4,30.67,SE,132,0.0,0.0,52,0.00,,,0.00,0.00,VWS V14.00,2013-07-20 09:26:00,
2013-07-20 03:31:00,56.8,41.3,30.66,SE,132,0.0,0.0,56,0.00,,,0.00,0.00,VWS V14.00,2013-07-20 09:31:00,
2013-07-20 03:36:00,56.8,39.4,30.67,SE,132,0.0,0.0,52,0.00,,,0.00,0.00,VWS V14.00,2013-07-20 09:36:00,
2013-07-20 03:41:00,56.9,39.5,30.67,SE,132,0.0,0.0,52,0.00,,,0.00,0.00,VWS V14.00,2013-07-20 09:41:00,
2013-07-20 03:46:00,57.0,39.6,30.67,SE,132,0.0,0.0,52,0.00,,,0.00,0.00,VWS V14.00,2013-07-20 09:46:00,
2013-07-20 03:51:00,57.0,39.1,30.67,SE,132,0.0,0.0,51,0.00,,,0.00,0.00,VWS V14.00,2013-07-20 09:51:00,
2013-07-20 03:56:00,57.0,41.9,30.66,SE,132,0.0,0.0,57,0.00,,,0.00,0.00,VWS V14.00,2013-07-20 09:56:00,
2013-07-20 04:01:00,56.8,42.6,30.66,SE,132,0.0,0.0,59,0.00,,,0.00,0.00,VWS V14.00,2013-07-20 10:01:00,
2013-07-20 04:06:00,56.4,40.0,30.66,SE,132,0.0,0.0,54,0.00,,,0.00,0.00,VWS V14.00,2013-07-20 10:06:00,
2013-07-20 04:11:00,56.3,38.9,30.65,SE,132,0.0,0.0,52,0.00,,,0.00,0.00,VWS V14.00,2013-07-20 10:11:00,
2013-07-20 04:16:00,56.1,42.8,30.65,SE,132,0.0,0.0,61,0.00,,,0.00,0.00,VWS V14.00,2013-07-20 10:16:00,
2013-07-20 04:21:00,55.7,42.0,30.65,SE,132,0.0,0.0,60,0.00,,,0.00,0.00,VWS V14.00,2013-07-20 10:21:00,
2013-07-20 04:26:00,55.2,40.2,30.65,SE,132,0.0,1.0,57,0.00,,,0.00,0.00,VWS V14.00,2013-07-20 10:26:00,
2013-07-20 04:31:00,54.8,37.0,30.66,SE,132,0.0,1.0,51,0.00,,,0.00,0.00,VWS V14.00,2013-07-20 10:31:00,
2013-07-20 04:36:00,54.8,39.9,30.66,SE,132,0.0,1.0,57,0.00,,,0.00,0.00,VWS V14.00,2013-07-20 10:36:00,
2013-07-20 04:41:00,54.6,41.0,30.66,SE,132,0.0,0.0,60,0.00,,,0.00,0.00,VWS V14.00,2013-07-20 10:41:00,
2013-07-20 04:46:00,54.4,41.7,30.66,SE,132,0.0,0.0,62,0.00,,,0.00,0.00,VWS V14.00,2013-07-20 10:46:00,
2013-07-20 04:51:00,54.1,42.2,30.67,SE,132,0.0,0.0,64,0.00,,,0.00,0.00,VWS V14.00,2013-07-20 10:51:00,
2013-07-20 04:56:00,53.7,40.6,30.67,SE,132,0.0,0.0,61,0.00,,,0.00,0.00,VWS V14.00,2013-07-20 10:56:00,
2013-07-20 05:01:00,53.5,40.4,30.67,SE,132,0.0,1.0,61,0.00,,,0.00,0.00,VWS V14.00,2013-07-20 11:01:00,
2013-07-20 05:06:00,53.4,41.5,30.67,SE,132,0.0,1.0,64,0.00,,,0.00,0.00,VWS V14.00,2013-07-20 11:06:00,
2013-07-20 05:11:00,53.3,41.0,30.67,SE,132,0.0,0.0,63,0.00,,,0.00,0.00,VWS V14.00,2013-07-20 11:11:00,
2013-07-20 05:16:00,53.1,40.8,30.67,SE,132,0.0,0.0,63,0.00,,,0.00,0.00,VWS V14.00,2013-07-20 11:16:00,
2013-07-20 05:21:00,53.0,41.6,30.67,SE,132,0.0,1.0,65,0.00,,,0.00,0.00,VWS V14.00,2013-07-20 11:21:00,
2013-07-20 05:26:00,52.9,39.4,30.68,SE,132,0.0,0.0,60,0.00,,,0.00,0.00,VWS V14.00,2013-07-20 11:26:00,
2013-07-20 05:31:00,53.1,37.8,30.68,SE,132,0.0,0.0,56,0.00,,,0.00,0.00,VWS V14.00,2013-07-20 11:31:00,
2013-07-20 05:36:00,53.4,37.7,30.68,SE,132,0.0,0.0,55,0.00,,,0.00,0.00,VWS V14.00,2013-07-20 11:36:00,
2013-07-20 05:41:00,53.6,38.8,30.67,SE,132,0.0,0.0,57,0.00,,,0.00,0.00,VWS V14.00,2013-07-20 11:41:00,
2013-07-20 05:46:00,53.9,38.6,30.67,SE,132,0.0,0.0,56,0.00,,,0.00,0.00,VWS V14.00,2013-07-20 11:46:00,
2013-07-20 05:52:00,54.2,37.5,30.67,SE,132,0.0,0.0,53,0.00,,,0.00,0.00,VWS V14.00,2013-07-20 11:52:00,
2013-07-20 05:57:00,54.4,38.6,30.67,SE,132,0.0,0.0,55,0.00,,,0.00,0.00,VWS V14.00,2013-07-20 11:57:00,
2013-07-20 06:01:00,54.4,40.0,30.67,SE,132,0.0,0.0,58,0.00,,,0.00,0.00,VWS V14.00,2013-07-20 12:01:00,
2013-07-20 06:07:00,54.4,37.6,30.67,SE,132,0.0,0.0,53,0.00,,,0.00,0.00,VWS V14.00,2013-07-20 12:07:00,
2013-07-20 06:12:00,54.4,41.2,30.67,SE,132,0.0,0.0,61,0.00,,,0.00,5.00,VWS V14.00,2013-07-20 12:12:00,
2013-07-20 06:17:00,54.2,41.5,30.68,SE,132,0.0,0.0,62,0.00,,,0.00,7.00,VWS V14.00,2013-07-20 12:17:00,
2013-07-20 06:22:00,53.9,41.2,30.68,SE,132,0.0,0.0,62,0.00,,,0.00,9.00,VWS V14.00,2013-07-20 12:22:00,
2013-07-20 06:27:00,53.6,41.3,30.68,SE,132,0.0,0.0,63,0.00,,,0.00,11.00,VWS V14.00,2013-07-20 12:27:00,
2013-07-20 06:32:00,53.3,42.2,30.69,SE,132,0.0,0.0,66,0.00,,,0.00,12.00,VWS V14.00,2013-07-20 12:32:00,
2013-07-20 06:37:00,53.1,41.7,30.69,SE,132,0.0,0.0,65,0.00,,,0.00,14.00,VWS V14.00,2013-07-20 12:37:00,
2013-07-20 06:42:00,52.9,41.1,30.69,SE,132,0.0,0.0,64,0.00,,,0.00,16.00,VWS V14.00,2013-07-20 12:42:00,
2013-07-20 06:47:00,52.7,39.6,30.69,SE,132,0.0,0.0,61,0.00,,,0.00,18.00,VWS V14.00,2013-07-20 12:47:00,
2013-07-20 06:52:00,52.6,39.5,30.69,SE,132,0.0,0.0,61,0.00,,,0.00,19.00,VWS V14.00,2013-07-20 12:52:00,
2013-07-20 06:57:00,52.5,40.3,30.69,SE,132,0.0,0.0,63,0.00,,,0.00,21.00,VWS V14.00,2013-07-20 12:57:00,
2013-07-20 07:02:00,52.4,39.8,30.69,SE,132,0.0,0.0,62,0.00,,,0.00,21.00,VWS V14.00,2013-07-20 13:02:00,
2013-07-20 07:07:00,52.4,39.4,30.69,SE,132,0.0,0.0,61,0.00,,,0.00,23.00,VWS V14.00,2013-07-20 13:07:00,
2013-07-20 07:12:00,52.4,43.3,30.71,SE,132,0.0,0.0,71,0.00,,,0.00,25.00,VWS V14.00,2013-07-20 13:12:00,
2013-07-20 07:17:00,52.3,41.7,30.71,SE,132,0.0,1.0,67,0.00,,,0.00,25.00,VWS V14.00,2013-07-20 13:17:00,
2013-07-20 07:22:00,52.3,41.7,30.71,SE,132,0.0,1.0,67,0.00,,,0.00,26.00,VWS V14.00,2013-07-20 13:22:00,
2013-07-20 07:27:00,52.4,43.3,30.70,SE,132,0.0,0.0,71,0.00,,,0.00,26.00,VWS V14.00,2013-07-20 13:27:00,
2013-07-20 07:32:00,52.6,43.5,30.70,SE,132,0.0,0.0,71,0.00,,,0.00,28.00,VWS V14.00,2013-07-20 13:32:00,
2013-07-20 07:37:00,52.6,41.6,30.70,SE,132,0.0,0.0,66,0.00,,,0.00,28.00,VWS V14.00,2013-07-20 13:37:00,
2013-07-20 07:42:00,52.8,43.7,30.70,SE,132,0.0,0.0,71,0.00,,,0.00,30.00,VWS V14.00,2013-07-20 13:42:00,
2013-07-20 07:47:00,52.9,40.2,30.71,SE,132,0.0,0.0,62,0.00,,,0.00,42.00,VWS V14.00,2013-07-20 13:47:00,
2013-07-20 07:52:00,53.3,39.3,30.71,SE,132,0.0,0.0,59,0.00,,,0.00,32.00,VWS V14.00,2013-07-20 13:52:00,
2013-07-20 07:57:00,53.8,41.1,30.71,SE,132,0.0,0.0,62,0.00,,,0.00,33.00,VWS V14.00,2013-07-20 13:57:00,
2013-07-20 08:02:00,54.2,41.5,30.70,SE,132,0.0,1.0,62,0.00,,,0.00,33.00,VWS V14.00,2013-07-20 14:02:00,
2013-07-20 08:07:00,54.8,42.0,30.70,SE,132,0.0,1.0,62,0.00,,,0.00,33.00,VWS V14.00,2013-07-20 14:07:00,
2013-07-20 08:12:00,55.3,42.5,30.73,SE,132,0.0,0.0,62,0.00,,,0.00,35.00,VWS V14.00,2013-07-20 14:12:00,
2013-07-20 08:17:00,55.7,41.6,30.72,SE,132,0.0,0.0,59,0.00,,,0.00,39.00,VWS V14.00,2013-07-20 14:17:00,
2013-07-20 08:22:00,56.2,42.1,30.72,SE,132,0.0,1.0,59,0.00,,,0.00,53.00,VWS V14.00,2013-07-20 14:22:00,
2013-07-20 08:27:00,56.7,42.5,30.72,SE,132,0.0,0.0,59,0.00,,,0.00,88.00,VWS V14.00,2013-07-20 14:27:00,
2013-07-20 08:32:00,57.6,42.0,30.71,SE,132,0.0,0.0,56,0.00,,,0.00,345.00,VWS V14.00,2013-07-20 14:32:00,
2013-07-20 08:37:00,58.6,42.5,30.71,SE,132,0.0,1.0,55,0.00,,,0.00,360.00,VWS V14.00,2013-07-20 14:37:00,
2013-07-20 08:42:00,59.4,42.8,30.71,SE,132,0.0,0.0,54,0.00,,,0.00,376.00,VWS V14.00,2013-07-20 14:42:00,
2013-07-20 08:47:00,60.4,42.7,30.70,SE,132,0.0,0.0,52,0.00,,,0.00,392.00,VWS V14.00,2013-07-20 14:47:00,
2013-07-20 08:52:00,61.4,43.6,30.70,SE,132,0.0,0.0,52,0.00,,,0.00,410.00,VWS V14.00,2013-07-20 14:52:00,
2013-07-20 08:57:00,62.6,42.7,30.70,SE,132,0.0,0.0,48,0.00,,,0.00,422.00,VWS V14.00,2013-07-20 14:57:00,
2013-07-20 09:02:00,63.7,42.5,30.69,SE,132,0.0,2.0,46,0.00,,,0.00,436.00,VWS V14.00,2013-07-20 15:02:00,
2013-07-20 09:07:00,64.8,45.2,30.69,SE,132,0.0,2.0,49,0.00,,,0.00,452.00,VWS V14.00,2013-07-20 15:07:00,
2013-07-20 09:12:00,65.7,43.8,30.70,SE,132,0.0,2.0,45,0.00,,,0.00,464.00,VWS V14.00,2013-07-20 15:12:00,
2013-07-20 09:17:00,66.5,43.9,30.70,SE,132,0.0,2.0,44,0.00,,,0.00,480.00,VWS V14.00,2013-07-20 15:17:00,
2013-07-20 09:22:00,67.2,44.6,30.70,SE,132,0.0,2.0,44,0.00,,,0.00,494.00,VWS V14.00,2013-07-20 15:22:00,
2013-07-20 09:27:00,67.9,44.0,30.69,SE,132,0.0,0.0,42,0.00,,,0.00,506.00,VWS V14.00,2013-07-20 15:27:00,
2013-07-20 09:32:00,68.6,44.6,30.69,SE,132,0.0,1.0,42,0.00,,,0.00,522.00,VWS V14.00,2013-07-20 15:32:00,
2013-07-20 09:37:00,69.3,45.9,30.68,SE,132,0.0,1.0,43,0.00,,,0.00,533.00,VWS V14.00,2013-07-20 15:37:00,
2013-07-20 09:42:00,70.0,45.2,30.67,SE,132,0.0,0.0,41,0.00,,,0.00,547.00,VWS V14.00,2013-07-20 15:42:00,
2013-07-20 09:47:00,70.8,46.6,30.67,SE,132,0.0,1.0,42,0.00,,,0.00,561.00,VWS V14.00,2013-07-20 15:47:00,
2013-07-20 09:52:00,71.5,45.9,30.66,SE,132,0.0,1.0,40,0.00,,,0.00,575.00,VWS V14.00,2013-07-20 15:52:00,
2013-07-20 09:57:00,72.1,45.8,30.66,SE,132,0.0,0.0,39,0.00,,,0.00,587.00,VWS V14.00,2013-07-20 15:57:00,
2013-07-20 10:02:00,73.1,46.7,30.66,SE,132,0.0,0.0,39,0.00,,,0.00,601.00,VWS V14.00,2013-07-20 16:02:00,
2013-07-20 10:07:00,74.0,47.5,30.65,SE,132,0.0,0.0,39,0.00,,,0.00,615.00,VWS V14.00,2013-07-20 16:07:00,
2013-07-20 10:12:00,74.6,46.6,30.67,ESE,103,0.0,4.0,37,0.00,,,0.00,624.00,VWS V14.00,2013-07-20 16:12:00,
2013-07-20 10:17:00,75.1,45.6,30.66,North,360,0.0,5.0,35,0.00,,,0.00,636.00,VWS V14.00,2013-07-20 16:17:00,
2013-07-20 10:22:00,75.5,46.0,30.67,North,360,0.0,5.0,35,0.00,,,0.00,647.00,VWS V14.00,2013-07-20 16:22:00,
2013-07-20 10:27:00,76.1,45.7,30.66,North,355,0.0,3.0,34,0.00,,,0.00,661.00,VWS V14.00,2013-07-20 16:27:00,
2013-07-20 10:32:00,76.3,45.1,30.66,NNW,343,0.0,4.0,33,0.00,,,0.00,670.00,VWS V14.00,2013-07-20 16:32:00,
2013-07-20 10:37:00,76.6,46.2,30.65,NNW,340,0.0,5.0,34,0.00,,,0.00,682.00,VWS V14.00,2013-07-20 16:37:00,
2013-07-20 10:42:00,76.6,46.9,30.65,NNW,337,0.0,4.0,35,0.00,,,0.00,694.00,VWS V14.00,2013-07-20 16:42:00,
2013-07-20 10:47:00,76.9,47.9,30.64,NNW,337,0.0,4.0,36,0.00,,,0.00,703.00,VWS V14.00,2013-07-20 16:47:00,
2013-07-20 10:52:00,77.1,46.6,30.65,NNW,339,1.0,5.0,34,0.00,,,0.00,714.00,VWS V14.00,2013-07-20 16:52:00,
2013-07-20 10:57:00,77.3,47.5,30.64,NNW,338,0.0,4.0,35,0.00,,,0.00,724.00,VWS V14.00,2013-07-20 16:57:00,
2013-07-20 11:02:00,77.6,47.0,30.65,NNW,340,0.0,5.0,34,0.00,,,0.00,735.00,VWS V14.00,2013-07-20 17:02:00,
2013-07-20 11:07:00,77.9,46.5,30.65,NNW,344,0.0,6.0,33,0.00,,,0.00,744.00,VWS V14.00,2013-07-20 17:07:00,
2013-07-20 11:12:00,78.2,44.3,30.66,NNW,344,5.0,5.0,30,0.00,,,0.00,752.00,VWS V14.00,2013-07-20 17:12:00,
2013-07-20 11:17:00,78.5,45.4,30.65,NNW,345,0.0,5.0,31,0.00,,,0.00,763.00,VWS V14.00,2013-07-20 17:17:00,
2013-07-20 11:22:00,78.7,46.4,30.65,NNW,342,0.0,5.0,32,0.00,,,0.00,775.00,VWS V14.00,2013-07-20 17:22:00,
2013-07-20 11:27:00,79.0,46.7,30.65,NNW,343,0.0,4.0,32,0.00,,,0.00,782.00,VWS V14.00,2013-07-20 17:27:00,
2013-07-20 11:32:00,79.4,46.2,30.65,NNW,344,3.0,4.0,31,0.00,,,0.00,789.00,VWS V14.00,2013-07-20 17:32:00,
2013-07-20 11:37:00,79.2,46.0,30.65,NNW,344,0.0,5.0,31,0.00,,,0.00,795.00,VWS V14.00,2013-07-20 17:37:00,
2013-07-20 11:42:00,79.1,45.9,30.65,NNW,344,3.0,5.0,31,0.00,,,0.00,803.00,VWS V14.00,2013-07-20 17:42:00,
2013-07-20 11:47:00,79.1,45.0,30.65,NNW,345,0.0,6.0,30,0.00,,,0.00,812.00,VWS V14.00,2013-07-20 17:47:00,
2013-07-20 11:52:00,78.9,45.7,30.65,NNW,345,0.0,6.0,31,0.00,,,0.00,821.00,VWS V14.00,2013-07-20 17:52:00,
2013-07-20 11:57:00,78.9,47.4,30.64,NNW,329,0.0,5.0,33,0.00,,,0.00,824.00,VWS V14.00,2013-07-20 17:57:00,
2013-07-20 12:02:00,79.0,45.8,30.64,NNW,341,3.0,5.0,31,0.00,,,0.00,826.00,VWS V14.00,2013-07-20 18:02:00,
2013-07-20 12:07:00,79.2,43.3,30.64,NNW,344,0.0,5.0,28,0.00,,,0.00,833.00,VWS V14.00,2013-07-20 18:07:00,
2013-07-20 12:12:00,79.4,46.2,30.65,NNW,345,1.0,6.0,31,0.00,,,0.00,840.00,VWS V14.00,2013-07-20 18:12:00,
2013-07-20 12:17:00,79.8,47.3,30.64,North,350,2.0,6.0,32,0.00,,,0.00,851.00,VWS V14.00,2013-07-20 18:17:00,
2013-07-20 12:22:00,80.1,46.8,30.64,NNW,342,0.0,6.0,31,0.00,,,0.00,856.00,VWS V14.00,2013-07-20 18:22:00,
2013-07-20 12:27:00,80.7,48.1,30.64,NNW,335,0.0,4.0,32,0.00,,,0.00,861.00,VWS V14.00,2013-07-20 18:27:00,
2013-07-20 12:32:00,81.1,45.9,30.64,NW,326,0.0,5.0,29,0.00,,,0.00,870.00,VWS V14.00,2013-07-20 18:32:00,
2013-07-20 12:37:00,81.5,44.3,30.64,NW,324,4.0,5.0,27,0.00,,,0.00,875.00,VWS V14.00,2013-07-20 18:37:00,
2013-07-20 12:42:00,81.8,44.6,30.62,NNW,332,2.0,4.0,27,0.00,,,0.00,877.00,VWS V14.00,2013-07-20 18:42:00,
2013-07-20 12:47:00,82.0,44.8,30.62,NNW,339,3.0,6.0,27,0.00,,,0.00,877.00,VWS V14.00,2013-07-20 18:47:00,
2013-07-20 12:52:00,82.2,44.9,30.62,NNW,327,4.0,6.0,27,0.00,,,0.00,881.00,VWS V14.00,2013-07-20 18:52:00,
2013-07-20 12:57:00,82.6,46.2,30.62,NNW,340,3.0,5.0,28,0.00,,,0.00,886.00,VWS V14.00,2013-07-20 18:57:00,
2013-07-20 13:03:00,83.0,47.5,30.62,NW,318,2.0,7.0,29,0.00,,,0.00,886.00,VWS V14.00,2013-07-20 19:03:00,
2013-07-20 13:08:00,83.0,46.6,30.62,NW,314,4.0,5.0,28,0.00,,,0.00,889.00,VWS V14.00,2013-07-20 19:08:00,
2013-07-20 13:13:00,83.2,45.8,30.61,NNW,345,2.0,6.0,27,0.00,,,0.00,893.00,VWS V14.00,2013-07-20 19:13:00,
2013-07-20 13:18:00,83.3,44.9,30.61,North,355,5.0,7.0,26,0.00,,,0.00,893.00,VWS V14.00,2013-07-20 19:18:00,
2013-07-20 13:23:00,83.6,48.9,30.61,North,355,5.0,5.0,30,0.00,,,0.00,893.00,VWS V14.00,2013-07-20 19:23:00,
2013-07-20 13:28:00,83.9,43.3,30.61,NNW,333,0.0,6.0,24,0.00,,,0.00,895.00,VWS V14.00,2013-07-20 19:28:00,
2013-07-20 13:33:00,84.3,44.7,30.61,North,355,5.0,7.0,25,0.00,,,0.00,895.00,VWS V14.00,2013-07-20 19:33:00,
2013-07-20 13:38:00,84.6,46.0,30.60,North,360,4.0,4.0,26,0.00,,,0.00,895.00,VWS V14.00,2013-07-20 19:38:00,
2013-07-20 13:43:00,84.8,44.0,30.60,NW,324,3.0,6.0,24,0.00,,,0.00,893.00,VWS V14.00,2013-07-20 19:43:00,
2013-07-20 13:48:00,85.2,43.3,30.59,NNW,335,0.0,6.0,23,0.00,,,0.00,895.00,VWS V14.00,2013-07-20 19:48:00,
2013-07-20 13:53:00,85.5,45.7,30.59,NNW,331,3.0,3.0,25,0.00,,,0.00,891.00,VWS V14.00,2013-07-20 19:53:00,
2013-07-20 13:58:00,85.9,48.1,30.58,NNW,344,0.0,6.0,27,0.00,,,0.00,889.00,VWS V14.00,2013-07-20 19:58:00,
2013-07-20 14:03:00,86.3,45.3,30.59,NW,309,5.0,6.0,24,0.00,,,0.00,893.00,VWS V14.00,2013-07-20 20:03:00,
2013-07-20 14:08:00,86.5,45.5,30.58,NW,317,4.0,4.0,24,0.00,,,0.00,888.00,VWS V14.00,2013-07-20 20:08:00,
2013-07-20 14:13:00,86.5,43.2,30.59,NW,326,0.0,4.0,22,0.00,,,0.00,886.00,VWS V14.00,2013-07-20 20:13:00,
2013-07-20 14:18:00,87.1,43.7,30.58,NW,318,2.0,4.0,22,0.00,,,0.00,884.00,VWS V14.00,2013-07-20 20:18:00,
2013-07-20 14:23:00,87.6,42.9,30.57,NW,313,0.0,1.0,21,0.00,,,0.00,884.00,VWS V14.00,2013-07-20 20:23:00,
2013-07-20 14:28:00,87.9,43.1,30.58,NW,313,0.0,4.0,21,0.00,,,0.00,886.00,VWS V14.00,2013-07-20 20:28:00,
2013-07-20 14:34:00,88.1,43.3,30.57,NNW,342,0.0,5.0,21,0.00,,,0.00,879.00,VWS V14.00,2013-07-20 20:34:00,
2013-07-20 14:39:00,88.2,43.4,30.57,NNW,333,3.0,6.0,21,0.00,,,0.00,877.00,VWS V14.00,2013-07-20 20:39:00,
2013-07-20 14:44:00,88.2,44.6,30.57,NNW,336,3.0,6.0,22,0.00,,,0.00,875.00,VWS V14.00,2013-07-20 20:44:00,
2013-07-20 14:49:00,88.4,43.5,30.57,North,355,3.0,6.0,21,0.00,,,0.00,867.00,VWS V14.00,2013-07-20 20:49:00,
2013-07-20 14:54:00,88.6,44.9,30.55,NNW,342,4.0,5.0,22,0.00,,,0.00,858.00,VWS V14.00,2013-07-20 20:54:00,
2013-07-20 14:59:00,88.8,42.6,30.55,North,349,0.0,5.0,20,0.00,,,0.00,851.00,VWS V14.00,2013-07-20 20:59:00,
2013-07-20 15:04:00,88.8,43.9,30.55,North,349,1.0,5.0,21,0.00,,,0.00,849.00,VWS V14.00,2013-07-20 21:04:00,
2013-07-20 15:10:00,89.2,47.7,30.55,North,349,1.0,1.0,24,0.00,,,0.00,842.00,VWS V14.00,2013-07-20 21:10:00,
2013-07-20 15:15:00,89.4,46.8,30.55,North,349,0.0,5.0,23,0.00,,,0.00,837.00,VWS V14.00,2013-07-20 21:15:00,
2013-07-20 15:20:00,89.6,43.3,30.54,NNW,336,1.0,5.0,20,0.00,,,0.00,831.00,VWS V14.00,2013-07-20 21:20:00,
2013-07-20 15:25:00,89.9,44.8,30.54,NNW,338,5.0,5.0,21,0.00,,,0.00,823.00,VWS V14.00,2013-07-20 21:25:00,
2013-07-20 15:30:00,90.0,43.6,30.54,NNW,339,0.0,5.0,20,0.00,,,0.00,817.00,VWS V14.00,2013-07-20 21:30:00,
2013-07-20 15:35:00,90.6,51.0,30.54,NNW,348,3.0,5.0,26,0.00,,,0.00,809.00,VWS V14.00,2013-07-20 21:35:00,
2013-07-20 15:40:00,90.8,42.9,30.54,North,350,3.0,4.0,19,0.00,,,0.00,800.00,VWS V14.00,2013-07-20 21:40:00,
2013-07-20 15:45:00,91.1,45.8,30.54,North,350,0.0,4.0,21,0.00,,,0.00,791.00,VWS V14.00,2013-07-20 21:45:00,
2013-07-20 15:50:00,91.4,48.4,30.53,North,350,0.0,4.0,23,0.00,,,0.00,782.00,VWS V14.00,2013-07-20 21:50:00,
2013-07-20 15:55:00,91.8,45.1,30.52,North,350,0.0,0.0,20,0.00,,,0.00,777.00,VWS V14.00,2013-07-20 21:55:00,
2013-07-20 16:00:00,92.2,41.2,30.52,North,350,0.0,0.0,17,0.00,,,0.00,766.00,VWS V14.00,2013-07-20 22:00:00,
2013-07-20 16:05:00,92.9,44.6,30.51,North,350,0.0,0.0,19,0.00,,,0.00,754.00,VWS V14.00,2013-07-20 22:05:00,
2013-07-20 16:10:00,93.6,51.4,30.52,North,350,0.0,0.0,24,0.00,,,0.00,745.00,VWS V14.00,2013-07-20 22:10:00,
2013-07-20 16:16:00,94.0,42.6,30.52,North,355,0.0,2.0,17,0.00,,,0.00,740.00,VWS V14.00,2013-07-20 22:16:00,
2013-07-20 16:21:00,94.6,46.0,30.50,North,355,0.0,2.0,19,0.00,,,0.00,729.00,VWS V14.00,2013-07-20 22:21:00,
2013-07-20 16:26:00,95.2,47.8,30.51,North,355,0.0,1.0,20,0.00,,,0.00,717.00,VWS V14.00,2013-07-20 22:26:00,
2013-07-20 16:31:00,95.6,48.2,30.50,North,355,0.0,2.0,20,0.00,,,0.00,705.00,VWS V14.00,2013-07-20 22:31:00,
2013-07-20 16:36:00,95.8,42.5,30.51,North,355,1.0,2.0,16,0.00,,,0.00,694.00,VWS V14.00,2013-07-20 22:36:00,
2013-07-20 16:41:00,96.1,39.2,30.51,North,351,0.0,2.0,14,0.00,,,0.00,686.00,VWS V14.00,2013-07-20 22:41:00,
2013-07-20 16:46:00,96.2,51.2,30.51,NNW,346,0.0,2.0,22,0.00,,,0.00,671.00,VWS V14.00,2013-07-20 22:46:00,
2013-07-20 16:51:00,95.7,45.5,30.50,NNW,346,0.0,2.0,18,0.00,,,0.00,661.00,VWS V14.00,2013-07-20 22:51:00,
2013-07-20 16:56:00,95.2,42.0,30.49,NNW,346,0.0,3.0,16,0.00,,,0.00,649.00,VWS V14.00,2013-07-20 22:56:00,
2013-07-20 17:01:00,95.4,51.8,30.49,NNW,346,0.0,3.0,23,0.00,,,0.00,633.00,VWS V14.00,2013-07-20 23:01:00,
2013-07-20 17:06:00,95.5,46.7,30.50,NNW,346,0.0,3.0,19,0.00,,,0.00,622.00,VWS V14.00,2013-07-20 23:06:00,
2013-07-20 17:11:00,95.3,40.4,30.49,NNW,346,0.0,0.0,15,0.00,,,0.00,612.00,VWS V14.00,2013-07-20 23:11:00,
2013-07-20 17:17:00,95.6,51.9,30.47,NNW,346,0.0,1.0,23,0.00,,,0.00,601.00,VWS V14.00,2013-07-20 23:17:00,
2013-07-20 17:22:00,95.9,52.2,30.47,NNW,346,0.0,3.0,23,0.00,,,0.00,587.00,VWS V14.00,2013-07-20 23:22:00,
2013-07-20 17:28:00,95.7,54.3,30.47,NNW,346,0.0,1.0,25,0.00,,,0.00,570.00,VWS V14.00,2013-07-20 23:28:00,
2013-07-20 17:33:00,95.5,43.8,30.48,NNW,346,0.0,1.0,17,0.00,,,0.00,557.00,VWS V14.00,2013-07-20 23:33:00,
2013-07-20 17:38:00,95.5,48.1,30.46,NNW,346,0.0,0.0,20,0.00,,,0.00,547.00,VWS V14.00,2013-07-20 23:38:00,
2013-07-20 17:43:00,95.7,48.3,30.47,NNW,346,0.0,0.0,20,0.00,,,0.00,529.00,VWS V14.00,2013-07-20 23:43:00,
2013-07-20 17:48:00,95.8,47.0,30.47,NNW,346,0.0,0.0,19,0.00,,,0.00,501.00,VWS V14.00,2013-07-20 23:48:00,
2013-07-20 17:53:00,95.6,46.8,30.47,NNW,346,0.0,0.0,19,0.00,,,0.00,485.00,VWS V14.00,2013-07-20 23:53:00,
2013-07-20 17:58:00,95.4,51.8,30.47,NNW,346,0.0,0.0,23,0.00,,,0.00,468.00,VWS V14.00,2013-07-20 23:58:00,
2013-07-20 18:04:00,95.5,40.5,30.47,NNW,346,0.0,1.0,15,0.00,,,0.00,462.00,VWS V14.00,2013-07-21 00:04:00,
2013-07-20 18:09:00,95.7,49.6,30.47,NNW,346,0.0,0.0,21,0.00,,,0.00,450.00,VWS V14.00,2013-07-21 00:09:00,
2013-07-20 18:14:00,95.6,46.8,30.47,NNW,346,0.0,0.0,19,0.00,,,0.00,439.00,VWS V14.00,2013-07-21 00:14:00,
2013-07-20 18:19:00,95.5,45.3,30.47,NNW,346,0.0,0.0,18,0.00,,,0.00,424.00,VWS V14.00,2013-07-21 00:19:00,
2013-07-20 18:24:00,95.1,45.0,30.47,NNW,346,1.0,1.0,18,0.00,,,0.00,415.00,VWS V14.00,2013-07-21 00:24:00,
2013-07-20 18:29:00,94.7,47.4,30.47,NNW,346,0.0,3.0,20,0.00,,,0.00,394.00,VWS V14.00,2013-07-21 00:29:00,
2013-07-20 18:34:00,94.6,46.0,30.48,NNW,346,0.0,3.0,19,0.00,,,0.00,376.00,VWS V14.00,2013-07-21 00:34:00,
2013-07-20 18:39:00,94.5,47.3,30.47,NNW,346,0.0,0.0,20,0.00,,,0.00,366.00,VWS V14.00,2013-07-21 00:39:00,
2013-07-20 18:44:00,94.6,48.7,30.47,North,350,0.0,0.0,21,0.00,,,0.00,350.00,VWS V14.00,2013-07-21 00:44:00,
2013-07-20 18:49:00,94.5,45.9,30.47,North,350,0.0,1.0,19,0.00,,,0.00,329.00,VWS V14.00,2013-07-21 00:49:00,
2013-07-20 18:54:00,94.1,45.6,30.46,North,349,1.0,1.0,19,0.00,,,0.00,316.00,VWS V14.00,2013-07-21 00:54:00,
2013-07-20 18:59:00,93.8,52.7,30.47,North,349,0.0,1.0,25,0.00,,,0.00,308.00,VWS V14.00,2013-07-21 00:59:00,
2013-07-20 19:04:00,93.3,46.3,30.48,North,350,0.0,1.0,20,0.00,,,0.00,294.00,VWS V14.00,2013-07-21 01:04:00,
2013-07-20 19:09:00,93.0,46.0,30.45,North,350,0.0,0.0,20,0.00,,,0.00,279.00,VWS V14.00,2013-07-21 01:09:00,
2013-07-20 19:14:00,92.8,49.6,30.45,North,349,0.0,0.0,23,0.00,,,0.00,264.00,VWS V14.00,2013-07-21 01:14:00,
2013-07-20 19:19:00,92.8,53.9,30.45,North,350,0.0,0.0,27,0.00,,,0.00,253.00,VWS V14.00,2013-07-21 01:19:00,
2013-07-20 19:25:00,92.3,49.2,30.46,North,349,0.0,0.0,23,0.00,,,0.00,230.00,VWS V14.00,2013-07-21 01:25:00,
2013-07-20 19:30:00,91.8,47.6,30.46,North,350,0.0,2.0,22,0.00,,,0.00,220.00,VWS V14.00,2013-07-21 01:30:00,
2013-07-20 19:35:00,91.6,48.6,30.46,North,350,3.0,3.0,23,0.00,,,0.00,209.00,VWS V14.00,2013-07-21 01:35:00,
2013-07-20 19:40:00,91.1,53.5,30.46,North,350,0.0,2.0,28,0.00,,,0.00,193.00,VWS V14.00,2013-07-21 01:40:00,
2013-07-20 19:45:00,90.6,54.0,30.45,North,350,0.0,3.0,29,0.00,,,0.00,181.00,VWS V14.00,2013-07-21 01:45:00,
2013-07-20 19:51:00,89.8,55.2,30.46,North,350,0.0,3.0,31,0.00,,,0.00,169.00,VWS V14.00,2013-07-21 01:51:00,
2013-07-20 19:56:00,89.3,51.0,30.47,North,350,0.0,0.0,27,0.00,,,0.00,158.00,VWS V14.00,2013-07-21 01:56:00,
2013-07-20 20:01:00,89.1,51.8,30.47,North,350,0.0,0.0,28,0.00,,,0.00,148.00,VWS V14.00,2013-07-21 02:01:00,
2013-07-20 20:06:00,88.9,52.6,30.46,North,350,0.0,1.0,29,0.00,,,0.00,135.00,VWS V14.00,2013-07-21 02:06:00,
2013-07-20 20:11:00,88.4,51.2,30.43,North,349,0.0,4.0,28,0.00,,,0.00,125.00,VWS V14.00,2013-07-21 02:11:00,
2013-07-20 20:16:00,87.8,49.7,30.44,North,349,0.0,4.0,27,0.00,,,0.00,111.00,VWS V14.00,2013-07-21 02:16:00,
2013-07-20 20:21:00,87.1,47.0,30.44,North,350,2.0,5.0,25,0.00,,,0.00,97.00,VWS V14.00,2013-07-21 02:21:00,
2013-07-20 20:26:00,86.8,50.8,30.44,North,350,0.0,4.0,29,0.00,,,0.00,88.00,VWS V14.00,2013-07-21 02:26:00,
2013-07-20 20:31:00,86.4,54.7,30.43,North,350,0.0,4.0,34,0.00,,,0.00,77.00,VWS V14.00,2013-07-21 02:31:00,
2013-07-20 20:36:00,85.4,53.9,30.44,North,349,0.0,4.0,34,0.00,,,0.00,65.00,VWS V14.00,2013-07-21 02:36:00,
2013-07-20 20:41:00,84.7,53.3,30.44,North,349,0.0,1.0,34,0.00,,,0.00,54.00,VWS V14.00,2013-07-21 02:41:00,
2013-07-20 20:46:00,84.0,53.4,30.45,North,349,0.0,1.0,35,0.00,,,0.00,44.00,VWS V14.00,2013-07-21 02:46:00,
2013-07-20 20:51:00,83.2,52.7,30.45,North,350,0.0,1.0,35,0.00,,,0.00,35.00,VWS V14.00,2013-07-21 02:51:00,
2013-07-20 20:57:00,82.4,51.2,30.46,North,350,0.0,2.0,34,0.00,,,0.00,12.00,VWS V14.00,2013-07-21 02:57:00,
2013-07-20 21:02:00,81.7,49.8,30.47,North,350,2.0,4.0,33,0.00,,,0.00,11.00,VWS V14.00,2013-07-21 03:02:00,
2013-07-20 21:07:00,81.0,47.5,30.47,North,350,0.0,4.0,31,0.00,,,0.00,9.00,VWS V14.00,2013-07-21 03:07:00,
2013-07-20 21:12:00,80.4,46.2,30.44,North,350,1.0,5.0,30,0.00,,,0.00,7.00,VWS V14.00,2013-07-21 03:12:00,
2013-07-20 21:17:00,80.0,46.7,30.44,NNE,19,0.0,5.0,31,0.00,,,0.00,5.00,VWS V14.00,2013-07-21 03:17:00,
2013-07-20 21:22:00,79.5,46.2,30.44,North,10,0.0,5.0,31,0.00,,,0.00,0.00,VWS V14.00,2013-07-21 03:22:00,
2013-07-20 21:27:00,79.1,46.7,30.45,North,10,0.0,3.0,32,0.00,,,0.00,0.00,VWS V14.00,2013-07-21 03:27:00,
2013-07-20 21:32:00,78.7,45.6,30.45,North,10,0.0,3.0,31,0.00,,,0.00,0.00,VWS V14.00,2013-07-21 03:32:00,
2013-07-20 21:37:00,78.4,45.3,30.46,North,10,0.0,4.0,31,0.00,,,0.00,0.00,VWS V14.00,2013-07-21 03:37:00,
2013-07-20 21:42:00,78.0,45.0,30.46,North,10,0.0,1.0,31,0.00,,,0.00,0.00,VWS V14.00,2013-07-21 03:42:00,
2013-07-20 21:47:00,77.8,44.8,30.46,North,10,0.0,1.0,31,0.00,,,0.00,0.00,VWS V14.00,2013-07-21 03:47:00,
2013-07-20 21:52:00,77.6,44.6,30.47,North,10,0.0,1.0,31,0.00,,,0.00,0.00,VWS V14.00,2013-07-21 03:52:00,
2013-07-20 21:58:00,77.3,45.2,30.48,North,10,0.0,0.0,32,0.00,,,0.00,0.00,VWS V14.00,2013-07-21 03:58:00,
2013-07-20 22:01:00,77.1,43.3,30.48,North,10,0.0,3.0,30,0.00,,,0.00,0.00,VWS V14.00,2013-07-21 04:01:00,
2013-07-20 22:06:00,76.8,43.0,30.48,North,10,0.0,3.0,30,0.00,,,0.00,0.00,VWS V14.00,2013-07-21 04:06:00,
2013-07-20 22:11:00,76.5,42.8,30.47,North,10,0.0,3.0,30,0.00,,,0.00,0.00,VWS V14.00,2013-07-21 04:11:00,
2013-07-20 22:16:00,76.2,43.4,30.47,North,9,0.0,3.0,31,0.00,,,0.00,0.00,VWS V14.00,2013-07-21 04:16:00,
2013-07-20 22:21:00,75.7,43.0,30.48,North,9,0.0,3.0,31,0.00,,,0.00,0.00,VWS V14.00,2013-07-21 04:21:00,
2013-07-20 22:26:00,75.3,43.4,30.48,North,9,0.0,0.0,32,0.00,,,0.00,0.00,VWS V14.00,2013-07-21 04:26:00,
2013-07-20 22:31:00,75.0,43.2,30.49,North,9,0.0,0.0,32,0.00,,,0.00,0.00,VWS V14.00,2013-07-21 04:31:00,
2013-07-20 22:36:00,74.5,42.7,30.49,North,9,0.0,0.0,32,0.00,,,0.00,0.00,VWS V14.00,2013-07-21 04:36:00,
2013-07-20 22:41:00,74.1,41.6,30.49,North,9,0.0,1.0,31,0.00,,,0.00,0.00,VWS V14.00,2013-07-21 04:41:00,
2013-07-20 22:46:00,73.9,45.3,30.49,North,9,0.0,1.0,36,0.00,,,0.00,0.00,VWS V14.00,2013-07-21 04:46:00,
2013-07-20 22:51:00,73.6,40.3,30.49,North,9,0.0,3.0,30,0.00,,,0.00,0.00,VWS V14.00,2013-07-21 04:51:00,
2013-07-20 22:56:00,73.6,39.4,30.49,North,9,0.0,0.0,29,0.00,,,0.00,0.00,VWS V14.00,2013-07-21 04:56:00,
2013-07-20 23:01:00,73.7,41.2,30.49,North,9,0.0,0.0,31,0.00,,,0.00,0.00,VWS V14.00,2013-07-21 05:01:00,
2013-07-20 23:06:00,73.7,39.5,30.49,North,9,0.0,1.0,29,0.00,,,0.00,0.00,VWS V14.00,2013-07-21 05:06:00,
2013-07-20 23:11:00,73.7,41.2,30.49,North,9,0.0,0.0,31,0.00,,,0.00,0.00,VWS V14.00,2013-07-21 05:11:00,
2013-07-20 23:16:00,73.6,46.5,30.49,North,9,0.0,0.0,38,0.00,,,0.00,0.00,VWS V14.00,2013-07-21 05:16:00,
2013-07-20 23:21:00,73.0,48.6,30.49,North,9,0.0,1.0,42,0.00,,,0.00,0.00,VWS V14.00,2013-07-21 05:21:00,
2013-07-20 23:26:00,72.1,47.8,30.50,North,9,2.0,2.0,42,0.00,,,0.00,0.00,VWS V14.00,2013-07-21 05:26:00,
2013-07-20 23:31:00,70.1,46.0,30.51,ENE,63,0.0,4.0,42,0.00,,,0.00,0.00,VWS V14.00,2013-07-21 05:31:00,
2013-07-20 23:36:00,68.3,45.0,30.52,ENE,65,0.0,4.0,43,0.00,,,0.00,0.00,VWS V14.00,2013-07-21 05:36:00,
2013-07-20 23:41:00,67.2,46.3,30.52,ENE,65,0.0,0.0,47,0.00,,,0.00,0.00,VWS V14.00,2013-07-21 05:41:00,
2013-07-20 23:46:00,66.3,44.3,30.53,ENE,65,0.0,0.0,45,0.00,,,0.00,0.00,VWS V14.00,2013-07-21 05:46:00,
2013-07-20 23:51:00,65.8,42.7,30.53,ENE,64,0.0,0.0,43,0.00,,,0.00,0.00,VWS V14.00,2013-07-21 05:51:00,
2013-07-20 23:56:00,65.6,44.3,30.53,ENE,64,0.0,0.0,46,0.00,,,0.00,0.00,VWS V14.00,2013-07-21 05:56:00,